createdAt,value
2023-08-06T00:00:10.417Z,15.00
2023-08-06T00:02:57.655Z,15.00
2023-08-06T00:05:25.338Z,15.00
2023-08-06T00:07:56.953Z,14.90
2023-08-06T00:10:24.634Z,14.90
2023-08-06T00:12:51.780Z,14.80
2023-08-06T00:15:19.360Z,14.80
2023-08-06T00:17:46.625Z,14.80
2023-08-06T00:20:14.637Z,14.80
2023-08-06T00:22:41.733Z,14.70
2023-08-06T00:25:09.663Z,14.70
2023-08-06T00:27:36.826Z,14.70
2023-08-06T00:30:06.850Z,14.70
2023-08-06T00:32:34.045Z,14.60
2023-08-06T00:35:01.451Z,14.60
2023-08-06T00:37:31.050Z,14.60
2023-08-06T00:39:58.406Z,14.60
2023-08-06T00:42:25.464Z,14.60
2023-08-06T00:44:53.102Z,14.60
2023-08-06T00:47:23.432Z,14.50
2023-08-06T00:49:51.156Z,14.60
2023-08-06T00:52:18.589Z,14.60
2023-08-06T00:54:46.035Z,14.60
2023-08-06T00:57:15.888Z,14.60
2023-08-06T00:59:46.538Z,14.60
2023-08-06T01:02:13.744Z,14.60
2023-08-06T01:04:41.247Z,14.60
2023-08-06T01:07:11.246Z,14.60
2023-08-06T01:10:02.805Z,14.60
2023-08-06T01:13:07.907Z,14.60
2023-08-06T01:15:43.686Z,14.70
2023-08-06T01:18:11.729Z,14.70
2023-08-06T01:20:39.220Z,14.70
2023-08-06T01:23:10.698Z,14.70
2023-08-06T01:25:46.519Z,14.80
2023-08-06T01:28:28.559Z,14.80
2023-08-06T01:31:01.311Z,14.80
2023-08-06T01:33:32.266Z,14.80
2023-08-06T01:36:05.114Z,14.80
2023-08-06T01:38:32.404Z,14.80
2023-08-06T01:40:59.790Z,14.80
2023-08-06T01:43:26.888Z,14.80
2023-08-06T01:45:57.722Z,14.80
2023-08-06T01:48:24.831Z,14.80
2023-08-06T01:50:52.355Z,14.80
2023-08-06T01:53:21.705Z,14.80
2023-08-06T01:55:50.101Z,14.80
2023-08-06T01:58:17.434Z,14.90
2023-08-06T02:00:44.837Z,14.90
2023-08-06T02:03:11.988Z,14.90
2023-08-06T02:05:39.552Z,14.80
2023-08-06T02:08:08.888Z,14.80
2023-08-06T02:10:38.856Z,14.80
2023-08-06T02:13:05.965Z,14.80
2023-08-06T02:15:33.343Z,14.80
2023-08-06T02:18:00.612Z,14.80
2023-08-06T02:20:30.506Z,14.80
2023-08-06T02:22:59.808Z,14.80
2023-08-06T02:25:29.631Z,14.80
2023-08-06T02:27:59.223Z,14.80
2023-08-06T02:30:27.126Z,14.70
2023-08-06T02:32:54.281Z,14.70
2023-08-06T02:35:21.649Z,14.70
2023-08-06T02:37:48.748Z,14.70
2023-08-06T02:40:16.214Z,14.70
2023-08-06T02:42:43.331Z,14.60
2023-08-06T02:45:10.827Z,14.60
2023-08-06T02:47:37.936Z,14.70
2023-08-06T02:50:05.840Z,14.70
2023-08-06T02:52:35.436Z,14.70
2023-08-06T02:55:02.820Z,14.60
2023-08-06T02:57:29.989Z,14.70
2023-08-06T02:59:57.578Z,14.70
2023-08-06T03:02:24.685Z,14.70
2023-08-06T03:04:52.231Z,14.70
2023-08-06T03:07:19.393Z,14.70
2023-08-06T03:09:46.847Z,14.70
2023-08-06T03:12:13.956Z,14.70
2023-08-06T03:14:41.458Z,14.60
2023-08-06T03:17:08.617Z,14.60
2023-08-06T03:19:35.933Z,14.50
2023-08-06T03:22:03.045Z,14.50
2023-08-06T03:24:32.837Z,14.40
2023-08-06T03:26:59.973Z,14.40
2023-08-06T03:29:27.352Z,14.40
2023-08-06T03:31:54.511Z,14.40
2023-08-06T03:34:21.895Z,14.40
2023-08-06T03:36:49.020Z,14.40
2023-08-06T03:39:16.440Z,14.40
2023-08-06T03:41:43.493Z,14.30
2023-08-06T03:44:10.982Z,14.40
2023-08-06T03:46:38.107Z,14.40
2023-08-06T03:49:05.532Z,14.40
2023-08-06T03:51:32.701Z,14.40
2023-08-06T03:54:00.120Z,14.40
2023-08-06T03:56:31.731Z,14.40
2023-08-06T03:58:59.211Z,14.40
2023-08-06T04:01:28.514Z,14.40
2023-08-06T04:03:58.076Z,14.40
2023-08-06T04:06:25.222Z,14.40
2023-08-06T04:08:55.143Z,14.40
2023-08-06T04:11:22.256Z,14.40
2023-08-06T04:13:49.872Z,14.50
2023-08-06T04:16:17.026Z,14.40
2023-08-06T04:18:44.508Z,14.40
2023-08-06T04:21:11.597Z,14.40
2023-08-06T04:23:39.095Z,14.40
2023-08-06T04:26:06.262Z,14.40
2023-08-06T04:28:33.622Z,14.40
2023-08-06T04:31:01.025Z,14.40
2023-08-06T04:33:28.698Z,14.40
2023-08-06T04:35:56.335Z,14.40
2023-08-06T04:38:27.451Z,14.40
2023-08-06T04:40:54.883Z,14.40
2023-08-06T04:43:22.442Z,14.40
2023-08-06T04:45:54.594Z,14.40
2023-08-06T04:48:22.077Z,14.40
2023-08-06T04:50:51.063Z,14.40
2023-08-06T04:53:18.736Z,14.30
2023-08-06T04:55:48.417Z,14.40
2023-08-06T04:58:16.242Z,14.30
2023-08-06T05:00:43.522Z,14.40
2023-08-06T05:03:10.995Z,14.30
2023-08-06T05:05:38.170Z,14.40
2023-08-06T05:08:05.582Z,14.40
2023-08-06T05:10:32.685Z,14.40
2023-08-06T05:13:02.386Z,14.40
2023-08-06T05:15:29.480Z,14.40
2023-08-06T05:17:56.940Z,14.40
2023-08-06T05:20:26.518Z,14.40
2023-08-06T05:22:53.990Z,14.40
2023-08-06T05:25:21.787Z,14.50
2023-08-06T05:27:49.171Z,14.50
2023-08-06T05:30:18.706Z,14.50
2023-08-06T05:32:46.190Z,14.50
2023-08-06T05:35:13.324Z,14.60
2023-08-06T05:37:40.815Z,14.60
2023-08-06T05:40:08.570Z,14.60
2023-08-06T05:42:38.474Z,14.60
2023-08-06T05:45:08.451Z,14.60
2023-08-06T05:47:38.474Z,14.60
2023-08-06T05:50:06.219Z,14.60
2023-08-06T05:52:33.633Z,14.60
2023-08-06T05:55:00.675Z,14.60
2023-08-06T05:57:28.058Z,14.60
2023-08-06T05:59:55.147Z,14.60
2023-08-06T06:02:22.566Z,14.60
2023-08-06T06:04:49.825Z,14.60
2023-08-06T06:07:17.274Z,14.60
2023-08-06T06:09:44.399Z,14.70
2023-08-06T06:12:14.298Z,14.60
2023-08-06T06:14:42.758Z,14.60
2023-08-06T06:17:12.404Z,14.60
2023-08-06T06:19:44.201Z,14.60
2023-08-06T06:22:13.962Z,14.60
2023-08-06T06:24:41.241Z,14.60
2023-08-06T06:27:08.737Z,14.60
2023-08-06T06:29:35.991Z,14.60
2023-08-06T06:32:03.666Z,14.60
2023-08-06T06:34:30.860Z,14.70
2023-08-06T06:36:58.364Z,14.70
2023-08-06T06:39:25.561Z,14.70
2023-08-06T06:41:53.272Z,14.80
2023-08-06T06:44:20.541Z,14.80
2023-08-06T06:46:48.242Z,14.80
2023-08-06T06:49:15.504Z,14.90
2023-08-06T06:51:45.468Z,14.90
2023-08-06T06:54:12.590Z,14.90
2023-08-06T06:56:40.015Z,14.90
2023-08-06T06:59:11.876Z,14.90
2023-08-06T07:01:39.278Z,14.90
2023-08-06T07:04:06.393Z,15.00
2023-08-06T07:06:33.827Z,15.00
2023-08-06T07:09:03.656Z,15.00
2023-08-06T07:11:33.754Z,15.00
2023-08-06T07:14:00.942Z,15.00
2023-08-06T07:16:31.121Z,15.00
2023-08-06T07:19:00.472Z,14.90
2023-08-06T07:21:27.914Z,15.00
2023-08-06T07:23:55.117Z,15.00
2023-08-06T07:26:22.605Z,15.00
2023-08-06T07:28:49.710Z,15.00
2023-08-06T07:31:19.459Z,15.00
2023-08-06T07:33:46.548Z,15.00
2023-08-06T07:36:15.692Z,15.00
2023-08-06T07:38:43.982Z,15.00
2023-08-06T07:41:13.925Z,15.00
2023-08-06T07:43:40.971Z,15.10
2023-08-06T07:46:08.456Z,15.10
2023-08-06T07:48:35.616Z,15.20
2023-08-06T07:51:03.065Z,15.10
2023-08-06T07:53:32.490Z,15.20
2023-08-06T07:55:59.914Z,15.20
2023-08-06T07:58:29.520Z,15.20
2023-08-06T08:00:56.998Z,15.20
2023-08-06T08:03:24.084Z,15.20
2023-08-06T08:05:55.188Z,15.30
2023-08-06T08:08:22.267Z,15.30
2023-08-06T08:10:49.788Z,15.30
2023-08-06T08:13:16.913Z,15.40
2023-08-06T08:15:44.410Z,15.50
2023-08-06T08:18:11.641Z,15.50
2023-08-06T08:20:39.095Z,15.50
2023-08-06T08:23:06.324Z,15.50
2023-08-06T08:25:33.737Z,15.50
2023-08-06T08:28:01.192Z,15.50
2023-08-06T08:30:28.525Z,15.50
2023-08-06T08:32:58.258Z,15.50
2023-08-06T08:35:25.431Z,15.50
2023-08-06T08:37:52.864Z,15.50
2023-08-06T08:40:25.179Z,15.50
2023-08-06T08:42:52.939Z,15.50
2023-08-06T08:45:23.441Z,15.40
2023-08-06T08:47:50.963Z,15.40
2023-08-06T08:50:21.014Z,15.40
2023-08-06T08:52:51.760Z,15.50
2023-08-06T08:55:19.068Z,15.50
2023-08-06T08:57:46.615Z,15.50
2023-08-06T09:00:16.195Z,15.50
2023-08-06T09:02:46.906Z,15.50
2023-08-06T09:05:15.267Z,15.60
2023-08-06T09:07:49.896Z,15.60
2023-08-06T09:10:20.582Z,15.60
2023-08-06T09:12:52.011Z,15.60
2023-08-06T09:15:23.341Z,15.70
2023-08-06T09:17:52.869Z,15.70
2023-08-06T09:20:20.018Z,15.80
2023-08-06T09:22:47.586Z,15.80
2023-08-06T09:25:23.707Z,15.70
2023-08-06T09:27:53.861Z,15.70
2023-08-06T09:30:31.752Z,15.70
2023-08-06T09:33:01.816Z,15.70
2023-08-06T09:35:33.077Z,15.80
2023-08-06T09:38:10.722Z,15.90
2023-08-06T09:40:39.703Z,16.00
2023-08-06T09:43:07.749Z,16.00
2023-08-06T09:45:39.201Z,16.10
2023-08-06T09:48:12.489Z,16.20
2023-08-06T09:50:41.820Z,16.30
2023-08-06T09:53:10.039Z,16.40
2023-08-06T09:55:38.202Z,16.40
2023-08-06T09:58:05.614Z,16.40
2023-08-06T10:00:39.463Z,16.40
2023-08-06T10:03:09.059Z,16.40
2023-08-06T10:05:37.900Z,16.50
2023-08-06T10:08:06.953Z,16.40
2023-08-06T10:10:40.094Z,16.40
2023-08-06T10:13:08.955Z,16.30
2023-08-06T10:15:37.506Z,16.30
2023-08-06T10:18:05.980Z,16.30
2023-08-06T10:20:39.155Z,16.30
2023-08-06T10:23:07.924Z,16.30
2023-08-06T10:25:36.901Z,16.30
2023-08-06T10:28:13.718Z,16.30
2023-08-06T10:30:47.184Z,16.20
2023-08-06T10:33:14.533Z,16.20
2023-08-06T10:35:46.031Z,16.30
2023-08-06T10:38:22.689Z,16.30
2023-08-06T10:40:50.667Z,16.30
2023-08-06T10:43:29.810Z,16.30
2023-08-06T10:45:59.410Z,16.40
2023-08-06T10:48:42.404Z,16.40
2023-08-06T10:51:14.509Z,16.40
2023-08-06T10:53:49.694Z,16.50
2023-08-06T10:56:24.118Z,16.40
2023-08-06T10:58:53.045Z,16.40
2023-08-06T11:01:20.699Z,16.50
2023-08-06T11:03:48.523Z,16.60
2023-08-06T11:06:20.770Z,16.80
2023-08-06T11:08:55.098Z,16.90
2023-08-06T11:11:24.111Z,17.10
2023-08-06T11:13:52.371Z,17.30
2023-08-06T11:16:24.197Z,17.50
2023-08-06T11:18:51.557Z,17.60
2023-08-06T11:21:22.689Z,17.70
2023-08-06T11:23:50.035Z,17.70
2023-08-06T11:26:21.725Z,17.90
2023-08-06T11:28:49.075Z,18.00
2023-08-06T11:31:23.130Z,18.00
2023-08-06T11:33:54.577Z,18.00
2023-08-06T11:36:32.329Z,18.00
2023-08-06T11:39:01.142Z,18.00
2023-08-06T11:41:32.231Z,18.00
2023-08-06T11:44:02.660Z,18.10
2023-08-06T11:46:30.330Z,18.10
2023-08-06T11:48:59.880Z,18.20
2023-08-06T11:51:27.729Z,18.30
2023-08-06T11:54:00.408Z,18.40
2023-08-06T11:56:28.840Z,18.50
2023-08-06T11:58:56.641Z,18.60
2023-08-06T12:01:24.357Z,18.80
2023-08-06T12:03:51.582Z,19.10
2023-08-06T12:06:19.138Z,19.30
2023-08-06T12:08:46.280Z,19.40
2023-08-06T12:11:13.776Z,19.40
2023-08-06T12:13:40.863Z,19.30
2023-08-06T12:16:11.318Z,19.20
2023-08-06T12:18:38.449Z,19.20
2023-08-06T12:21:05.966Z,19.10
2023-08-06T12:23:33.083Z,19.10
2023-08-06T12:26:00.641Z,19.10
2023-08-06T12:28:27.774Z,19.10
2023-08-06T12:30:55.275Z,19.10
2023-08-06T12:33:22.561Z,19.10
2023-08-06T12:35:50.012Z,19.10
2023-08-06T12:38:17.262Z,19.20
2023-08-06T12:40:44.756Z,19.40
2023-08-06T12:43:11.912Z,19.60
2023-08-06T12:45:42.572Z,19.80
2023-08-06T12:48:09.682Z,20.00
2023-08-06T12:50:37.501Z,20.00
2023-08-06T12:53:04.636Z,20.00
2023-08-06T12:55:33.456Z,20.00
2023-08-06T12:58:00.924Z,20.00
2023-08-06T13:00:28.632Z,19.70
2023-08-06T13:02:56.255Z,19.50
2023-08-06T13:05:26.716Z,19.10
2023-08-06T13:07:56.071Z,18.90
2023-08-06T13:10:25.758Z,18.80
2023-08-06T13:12:53.019Z,18.60
2023-08-06T13:15:20.568Z,18.50
2023-08-06T13:17:48.113Z,18.50
2023-08-06T13:20:20.466Z,18.60
2023-08-06T13:22:50.637Z,18.70
2023-08-06T13:25:20.513Z,18.70
2023-08-06T13:27:47.735Z,18.70
2023-08-06T13:30:15.426Z,18.60
2023-08-06T13:32:42.838Z,18.60
2023-08-06T13:35:10.582Z,18.60
2023-08-06T13:37:38.081Z,18.40
2023-08-06T13:40:11.183Z,18.30
2023-08-06T13:42:38.318Z,18.20
2023-08-06T13:45:09.201Z,18.10
2023-08-06T13:47:38.840Z,18.00
2023-08-06T13:50:06.952Z,18.00
2023-08-06T13:52:34.221Z,17.90
2023-08-06T13:55:01.600Z,17.80
2023-08-06T13:57:28.762Z,17.80
2023-08-06T13:59:58.653Z,17.70
2023-08-06T14:02:25.891Z,17.60
2023-08-06T14:04:54.368Z,17.50
2023-08-06T14:07:22.026Z,17.40
2023-08-06T14:09:51.976Z,17.30
2023-08-06T14:12:19.084Z,17.20
2023-08-06T14:14:48.978Z,17.20
2023-08-06T14:17:18.557Z,17.10
2023-08-06T14:19:46.140Z,17.10
2023-08-06T14:22:13.296Z,17.20
2023-08-06T14:24:42.951Z,17.10
2023-08-06T14:27:10.175Z,17.10
2023-08-06T14:29:37.860Z,17.10
2023-08-06T14:32:05.613Z,17.00
2023-08-06T14:34:33.034Z,17.00
2023-08-06T14:37:03.000Z,16.90
2023-08-06T14:39:30.409Z,16.90
2023-08-06T14:42:00.146Z,16.80
2023-08-06T14:44:27.545Z,16.70
2023-08-06T14:46:55.455Z,16.70
2023-08-06T14:49:23.314Z,16.80
2023-08-06T14:51:50.586Z,16.70
2023-08-06T14:54:19.253Z,16.80
2023-08-06T14:56:48.362Z,16.80
2023-08-06T14:59:17.741Z,16.90
2023-08-06T15:01:47.365Z,17.00
2023-08-06T15:04:17.213Z,17.00
2023-08-06T15:06:44.622Z,17.00
2023-08-06T15:09:14.875Z,17.00
2023-08-06T15:11:53.863Z,17.00
2023-08-06T15:14:21.501Z,17.00
2023-08-06T15:16:52.011Z,16.90
2023-08-06T15:19:19.661Z,16.90
2023-08-06T15:21:46.871Z,16.90
2023-08-06T15:24:14.482Z,16.80
2023-08-06T15:26:44.301Z,16.70
2023-08-06T15:29:14.660Z,16.60
2023-08-06T15:31:42.016Z,16.60
2023-08-06T15:34:11.800Z,16.60
2023-08-06T15:36:39.106Z,16.70
2023-08-06T15:39:06.709Z,16.80
2023-08-06T15:41:39.624Z,16.80
2023-08-06T15:44:13.425Z,16.90
2023-08-06T15:46:40.775Z,16.90
2023-08-06T15:49:11.011Z,16.90
2023-08-06T15:51:38.196Z,16.90
2023-08-06T15:54:08.683Z,16.90
2023-08-06T15:56:40.654Z,16.90
2023-08-06T15:59:23.317Z,16.90
2023-08-06T16:01:50.813Z,16.80
2023-08-06T16:04:20.851Z,16.80
2023-08-06T16:06:50.803Z,16.70
2023-08-06T16:09:22.044Z,16.70
2023-08-06T16:11:49.690Z,16.70
2023-08-06T16:14:17.768Z,16.70
2023-08-06T16:16:44.901Z,16.70
2023-08-06T16:19:15.855Z,16.70
2023-08-06T16:21:43.612Z,16.60
2023-08-06T16:24:11.909Z,16.70
2023-08-06T16:26:39.469Z,16.60
2023-08-06T16:29:06.748Z,16.60
2023-08-06T16:31:38.130Z,16.50
2023-08-06T16:34:06.991Z,16.60
2023-08-06T16:36:35.864Z,16.50
2023-08-06T16:39:03.414Z,16.50
2023-08-06T16:41:31.027Z,16.40
2023-08-06T16:43:58.311Z,16.30
2023-08-06T16:46:28.293Z,16.30
2023-08-06T16:48:57.920Z,16.20
2023-08-06T16:51:27.837Z,16.20
2023-08-06T16:53:57.209Z,16.10
2023-08-06T16:56:24.649Z,16.00
2023-08-06T16:58:51.902Z,16.00
2023-08-06T17:01:19.318Z,15.90
2023-08-06T17:03:46.685Z,15.90
2023-08-06T17:06:14.207Z,15.90
2023-08-06T17:08:41.358Z,15.90
2023-08-06T17:11:11.167Z,15.80
2023-08-06T17:13:40.496Z,15.80
2023-08-06T17:16:07.943Z,15.70
2023-08-06T17:18:35.191Z,15.60
2023-08-06T17:21:04.835Z,15.60
2023-08-06T17:23:32.110Z,15.60
2023-08-06T17:25:59.642Z,15.50
2023-08-06T17:28:26.802Z,15.50
2023-08-06T17:30:56.775Z,15.40
2023-08-06T17:33:23.853Z,15.50
2023-08-06T17:35:54.174Z,15.40
2023-08-06T17:38:21.842Z,15.40
2023-08-06T17:40:59.667Z,15.40
2023-08-06T17:43:27.053Z,15.30
2023-08-06T17:45:57.054Z,15.30
2023-08-06T17:48:26.689Z,15.30
2023-08-06T17:50:54.238Z,15.30
2023-08-06T17:53:24.097Z,15.20
2023-08-06T17:55:55.927Z,15.20
2023-08-06T17:58:23.051Z,15.20
2023-08-06T18:00:53.098Z,15.10
2023-08-06T18:03:20.322Z,15.10
2023-08-06T18:05:47.959Z,15.10
2023-08-06T18:08:15.051Z,15.10
2023-08-06T18:10:42.533Z,15.10
2023-08-06T18:13:10.478Z,15.10
2023-08-06T18:15:40.246Z,15.00
2023-08-06T18:18:07.544Z,15.00
2023-08-06T18:20:34.972Z,15.00
2023-08-06T18:23:02.406Z,14.90
2023-08-06T18:25:30.168Z,14.80
2023-08-06T18:27:57.344Z,14.80
2023-08-06T18:30:24.873Z,14.70
2023-08-06T18:32:55.394Z,14.70
2023-08-06T18:35:25.570Z,14.70
2023-08-06T18:37:56.466Z,14.70
2023-08-06T18:40:23.929Z,14.70
2023-08-06T18:42:51.110Z,14.70
2023-08-06T18:45:18.698Z,14.60
2023-08-06T18:47:46.021Z,14.60
2023-08-06T18:50:13.749Z,14.50
2023-08-06T18:52:40.801Z,14.40
2023-08-06T18:55:08.563Z,14.40
2023-08-06T18:57:38.151Z,14.40
2023-08-06T19:00:06.397Z,14.30
2023-08-06T19:02:33.625Z,14.20
2023-08-06T19:05:02.067Z,14.20
2023-08-06T19:07:33.350Z,14.20
2023-08-06T19:10:00.801Z,14.10
2023-08-06T19:12:30.211Z,14.10
2023-08-06T19:14:57.629Z,14.10
2023-08-06T19:17:24.793Z,14.10
2023-08-06T19:19:54.776Z,14.20
2023-08-06T19:22:24.123Z,14.20
2023-08-06T19:24:51.691Z,14.10
2023-08-06T19:27:18.842Z,14.10
2023-08-06T19:29:48.513Z,14.10
2023-08-06T19:32:16.017Z,14.10
2023-08-06T19:34:44.166Z,14.10
2023-08-06T19:37:13.733Z,14.10
2023-08-06T19:39:41.335Z,14.10
2023-08-06T19:42:08.527Z,14.00
2023-08-06T19:44:38.646Z,14.00
2023-08-06T19:47:10.108Z,14.00
2023-08-06T19:49:37.807Z,14.00
2023-08-06T19:52:08.980Z,14.00
2023-08-06T19:54:39.085Z,14.00
2023-08-06T19:57:06.649Z,14.00
2023-08-06T19:59:35.134Z,14.00
2023-08-06T20:02:02.218Z,14.00
2023-08-06T20:04:31.868Z,14.00
2023-08-06T20:06:59.029Z,14.00
2023-08-06T20:09:26.412Z,14.00
2023-08-06T20:11:56.090Z,14.00
2023-08-06T20:14:23.888Z,14.00
2023-08-06T20:16:51.010Z,14.00
2023-08-06T20:19:18.834Z,14.00
2023-08-06T20:21:45.927Z,14.00
2023-08-06T20:24:15.596Z,14.00
2023-08-06T20:26:45.390Z,14.00
2023-08-06T20:29:12.867Z,14.00
2023-08-06T20:31:42.428Z,14.00
2023-08-06T20:34:14.592Z,13.90
2023-08-06T20:36:42.328Z,14.00
2023-08-06T20:39:17.225Z,14.00
2023-08-06T20:41:46.606Z,14.00
2023-08-06T20:44:16.571Z,14.00
2023-08-06T20:46:46.356Z,14.10
2023-08-06T20:49:16.119Z,14.10
2023-08-06T20:51:45.899Z,14.10
2023-08-06T20:54:13.532Z,14.10
2023-08-06T20:56:40.758Z,14.20
2023-08-06T20:59:11.214Z,14.20
2023-08-06T21:01:38.614Z,14.20
2023-08-06T21:04:06.451Z,14.20
2023-08-06T21:06:33.560Z,14.20
2023-08-06T21:09:03.839Z,14.20
2023-08-06T21:11:31.240Z,14.20
2023-08-06T21:14:01.048Z,14.20
2023-08-06T21:16:31.086Z,14.20
2023-08-06T21:18:58.696Z,14.20
2023-08-06T21:21:25.894Z,14.10
2023-08-06T21:23:53.428Z,14.10
2023-08-06T21:26:20.580Z,14.10
2023-08-06T21:28:48.369Z,14.10
2023-08-06T21:31:15.506Z,14.10
2023-08-06T21:33:43.078Z,14.10
2023-08-06T21:36:11.269Z,14.10
2023-08-06T21:38:40.514Z,14.10
2023-08-06T21:41:16.037Z,14.10
2023-08-06T21:43:50.487Z,14.10
2023-08-06T21:46:19.506Z,14.10
2023-08-06T21:48:49.238Z,14.10
2023-08-06T21:51:20.952Z,14.20
2023-08-06T21:53:49.501Z,14.20
2023-08-06T21:56:17.543Z,14.20
2023-08-06T21:58:50.674Z,14.20
2023-08-06T22:01:20.789Z,14.20
2023-08-06T22:03:50.678Z,14.20
2023-08-06T22:06:17.902Z,14.20
2023-08-06T22:08:45.439Z,14.20
2023-08-06T22:11:15.080Z,14.20
2023-08-06T22:13:42.599Z,14.20
2023-08-06T22:16:10.588Z,14.20
2023-08-06T22:18:40.802Z,14.20
2023-08-06T22:21:08.083Z,14.20
2023-08-06T22:23:38.139Z,14.20
2023-08-06T22:26:05.303Z,14.20
2023-08-06T22:28:36.685Z,14.20
2023-08-06T22:31:05.154Z,14.20
2023-08-06T22:33:34.978Z,14.20
2023-08-06T22:36:04.426Z,14.20
2023-08-06T22:38:31.791Z,14.20
2023-08-06T22:40:58.917Z,14.20
2023-08-06T22:43:26.323Z,14.20
2023-08-06T22:45:53.413Z,14.30
2023-08-06T22:48:23.111Z,14.30
2023-08-06T22:50:50.180Z,14.30
2023-08-06T22:53:17.638Z,14.30
2023-08-06T22:58:19.913Z,14.30
2023-08-06T23:00:47.123Z,14.30
2023-08-06T23:03:14.688Z,14.30
2023-08-06T23:05:41.970Z,14.30
2023-08-06T23:08:11.922Z,14.30
2023-08-06T23:10:41.436Z,14.30
2023-08-06T23:13:11.158Z,14.30
2023-08-06T23:15:38.590Z,14.40
2023-08-06T23:18:06.112Z,14.40
2023-08-06T23:20:33.325Z,14.40
2023-08-06T23:23:00.925Z,14.40
2023-08-06T23:25:28.063Z,14.50
2023-08-06T23:27:57.691Z,14.40
2023-08-06T23:30:24.899Z,14.40
2023-08-06T23:32:52.478Z,14.30
2023-08-06T23:35:22.189Z,14.30
2023-08-06T23:37:49.595Z,14.30
2023-08-06T23:40:19.735Z,14.30
2023-08-06T23:42:47.244Z,14.20
2023-08-06T23:45:16.631Z,14.20
2023-08-06T23:47:46.482Z,14.20
2023-08-06T23:50:18.665Z,14.20
2023-08-06T23:52:46.044Z,14.20
2023-08-06T23:55:13.212Z,14.20
2023-08-06T23:57:40.806Z,14.20
